Time;durP1;ratioP1;P1;durP2;ratioP2;P2;SDS_P1;SDS_P2;PMS_P1;PMS_P2;Temp;Humidity;BMP_temperature;BMP_pressure;BME280_temperature;BME280_humidity;BME280_pressure;Samples;Min_cycle;Max_cycle;Signal;HPM_P1;HPM_P2
2022/11/06 00:01:32;;;;;;;12.75;10.98;;;6.90;99.90;;;;;;5071749;28;20413;-49
2022/11/06 00:03:58;;;;;;;10.73;9.57;;;6.90;99.90;;;;;;5072297;28;20059;-50
2022/11/06 00:09:10;;;;;;;10.98;8.60;;;6.90;99.90;;;;;;5062819;28;20515;-50
2022/11/06 00:11:38;;;;;;;10.23;9.23;;;7.00;99.90;;;;;;5072956;28;20035;-49
2022/11/06 00:14:04;;;;;;;10.50;9.10;;;7.00;99.90;;;;;;5072565;28;20025;-50
2022/11/06 00:16:29;;;;;;;12.23;10.20;;;7.00;99.90;;;;;;5071479;28;20021;-50
2022/11/06 00:18:55;;;;;;;12.20;9.93;;;7.10;99.90;;;;;;5072129;28;20933;-52
2022/11/06 00:21:23;;;;;;;12.80;9.82;;;7.00;99.90;;;;;;5072750;28;20099;-49
2022/11/06 00:23:50;;;;;;;21.52;10.32;;;7.10;99.90;;;;;;5072941;28;20036;-50
2022/11/06 00:26:20;;;;;;;13.82;10.25;;;7.10;99.90;;;;;;5072820;28;20032;-52
2022/11/06 00:28:47;;;;;;;14.55;10.43;;;7.10;99.90;;;;;;5072718;28;20024;-50
2022/11/06 00:31:18;;;;;;;15.60;10.15;;;7.10;99.90;;;;;;5072866;28;20033;-50
2022/11/06 00:33:44;;;;;;;13.32;9.55;;;7.10;99.90;;;;;;5072180;28;20388;-51
2022/11/06 00:36:13;;;;;;;10.55;9.40;;;7.10;99.90;;;;;;5072047;28;20028;-49
2022/11/06 00:38:39;;;;;;;12.45;9.23;;;7.10;99.90;;;;;;5071702;28;21508;-51
2022/11/06 00:41:07;;;;;;;13.00;9.93;;;7.10;99.90;;;;;;5071793;28;20056;-51
2022/11/06 00:43:34;;;;;;;12.52;9.60;;;7.10;99.90;;;;;;5071689;28;20380;-49
2022/11/06 00:46:05;;;;;;;10.43;8.80;;;7.00;99.90;;;;;;5070768;28;20674;-50
2022/11/06 00:48:32;;;;;;;11.18;9.52;;;7.00;99.90;;;;;;5071918;28;20028;-49
2022/11/06 00:51:12;;;;;;;11.43;9.60;;;7.00;99.90;;;;;;5072244;28;20415;-51
2022/11/06 00:53:38;;;;;;;14.55;10.90;;;7.00;99.90;;;;;;5071793;28;20561;-50
2022/11/06 00:56:08;;;;;;;11.45;9.55;;;6.90;99.90;;;;;;5071474;28;20085;-49
2022/11/06 00:58:34;;;;;;;11.52;10.15;;;7.00;99.90;;;;;;5071592;28;20024;-49
2022/11/06 01:01:17;;;;;;;16.55;10.43;;;7.00;99.90;;;;;;5071495;28;20016;-50
2022/11/06 01:03:45;;;;;;;15.75;10.23;;;7.00;99.90;;;;;;5071356;28;20024;-50
2022/11/06 01:06:21;;;;;;;12.65;8.82;;;7.00;99.90;;;;;;5072199;28;20047;-49
2022/11/06 01:08:47;;;;;;;12.73;8.73;;;7.10;99.90;;;;;;5071995;28;20097;-49
2022/11/06 01:11:22;;;;;;;10.05;8.93;;;7.10;99.90;;;;;;5072069;28;20028;-50
2022/11/06 01:13:53;;;;;;;12.45;9.93;;;7.10;99.90;;;;;;5071956;28;20031;-50
2022/11/06 01:16:20;;;;;;;11.50;8.52;;;7.10;99.90;;;;;;5071870;28;20051;-50
2022/11/06 01:18:46;;;;;;;13.55;8.77;;;7.10;99.90;;;;;;5071781;28;20033;-49
2022/11/06 01:21:19;;;;;;;11.52;10.15;;;7.10;99.90;;;;;;5071770;28;20020;-51
2022/11/06 01:23:45;;;;;;;12.13;10.45;;;7.10;99.90;;;;;;5071838;28;20419;-51
2022/11/06 01:26:13;;;;;;;9.48;8.43;;;7.10;99.90;;;;;;5071710;28;20114;-51
2022/11/06 01:28:40;;;;;;;17.38;9.55;;;7.20;99.90;;;;;;5071730;28;20495;-49
2022/11/06 01:31:08;;;;;;;13.98;9.40;;;7.20;99.90;;;;;;5071484;28;20140;-50
2022/11/06 01:33:34;;;;;;;10.25;9.10;;;7.20;99.90;;;;;;5071411;28;20028;-49
2022/11/06 01:36:00;;;;;;;13.00;8.70;;;7.20;99.90;;;;;;5070291;28;20503;-50
2022/11/06 01:38:26;;;;;;;11.32;8.25;;;7.20;99.90;;;;;;5071358;28;20138;-49
2022/11/06 01:40:52;;;;;;;10.05;9.00;;;7.30;99.90;;;;;;5071326;28;20483;-49
2022/11/06 01:43:24;;;;;;;10.05;8.57;;;7.30;99.90;;;;;;5071577;28;20020;-49
2022/11/06 01:45:54;;;;;;;9.27;8.15;;;7.30;99.90;;;;;;5071551;28;20693;-49
2022/11/06 01:48:24;;;;;;;11.70;8.68;;;7.30;99.90;;;;;;5071202;28;20043;-49
2022/11/06 01:50:54;;;;;;;12.55;9.32;;;7.20;99.90;;;;;;5069934;28;20036;-48
2022/11/06 01:53:21;;;;;;;10.02;8.80;;;7.30;99.90;;;;;;5071017;28;20108;-49
2022/11/06 01:55:50;;;;;;;9.77;8.45;;;7.30;99.90;;;;;;5070971;28;20071;-50
2022/11/06 01:58:19;;;;;;;9.32;8.32;;;7.20;99.90;;;;;;5071358;28;20029;-50
2022/11/06 02:00:47;;;;;;;8.85;7.95;;;7.30;99.90;;;;;;5071274;28;20493;-49
2022/11/06 02:03:13;;;;;;;9.48;8.27;;;7.30;99.90;;;;;;5071167;28;20024;-50
2022/11/06 02:05:39;;;;;;;14.57;8.77;;;7.20;99.90;;;;;;5071074;28;20075;-49
2022/11/06 02:08:07;;;;;;;9.73;8.70;;;7.10;99.90;;;;;;5070770;28;20048;-49
2022/11/06 02:10:33;;;;;;;12.50;9.60;;;7.10;99.90;;;;;;5070776;28;20345;-51
2022/11/06 02:13:05;;;;;;;10.93;8.77;;;7.10;99.90;;;;;;5070895;28;20028;-50
2022/11/06 02:15:46;;;;;;;9.63;8.68;;;7.00;99.90;;;;;;5071042;28;20415;-51
2022/11/06 02:18:24;;;;;;;14.38;9.40;;;7.00;99.90;;;;;;5071184;28;20092;-49
2022/11/06 02:20:55;;;;;;;11.48;9.48;;;7.00;99.90;;;;;;5070983;28;20056;-49
2022/11/06 02:24:18;;;;;;;11.02;8.63;;;7.00;99.90;;;;;;5070776;28;20088;-49
2022/11/06 02:27:38;;;;;;;12.35;9.70;;;6.90;99.90;;;;;;4989048;28;20113;-50
2022/11/06 02:30:13;;;;;;;12.60;10.18;;;6.90;99.90;;;;;;5028564;28;20372;-49
2022/11/06 02:32:44;;;;;;;14.15;9.95;;;6.80;99.90;;;;;;5028367;28;20732;-51
2022/11/06 02:35:18;;;;;;;13.40;10.98;;;6.80;99.90;;;;;;5052181;28;20087;-49
2022/11/06 02:37:44;;;;;;;;;;;6.80;99.90;;;;;;5071400;28;20530;-49
2022/11/06 02:40:12;;;;;;;11.35;9.65;;;6.80;99.90;;;;;;5070796;28;19952;-49
2022/11/06 02:42:42;;;;;;;12.68;10.63;;;6.80;99.90;;;;;;5072473;28;20094;-50
2022/11/06 02:45:11;;;;;;;16.00;10.80;;;6.80;99.90;;;;;;5073821;28;20028;-51
2022/11/06 02:47:38;;;;;;;14.07;11.68;;;6.80;99.90;;;;;;5074509;28;20021;-49
2022/11/06 02:50:13;;;;;;;11.82;10.13;;;6.80;99.90;;;;;;5074655;28;20029;-50
2022/11/06 02:52:56;;;;;;;12.25;10.05;;;6.90;99.90;;;;;;5074696;28;20055;-51
2022/11/06 02:55:28;;;;;;;15.05;11.30;;;6.90;99.90;;;;;;5073803;28;20024;-50
2022/11/06 02:57:59;;;;;;;17.20;12.57;;;6.90;99.90;;;;;;5074418;28;20375;-50
2022/11/06 03:00:26;;;;;;;13.82;11.45;;;6.80;99.90;;;;;;5074332;28;20436;-51
2022/11/06 03:03:00;;;;;;;13.68;11.10;;;6.90;99.90;;;;;;5074597;28;20017;-52
2022/11/06 03:05:34;;;;;;;;;;;6.90;99.90;;;;;;5073049;28;20029;-49
2022/11/06 03:08:24;;;;;;;16.00;11.65;;;6.80;99.90;;;;;;5074192;28;19919;-50
2022/11/06 03:11:17;;;;;;;15.07;12.05;;;6.80;99.90;;;;;;5074155;28;20039;-49
2022/11/06 03:14:01;;;;;;;21.52;15.88;;;6.80;99.90;;;;;;5073513;28;20041;-51
2022/11/06 03:16:37;;;;;;;18.83;12.75;;;6.80;99.90;;;;;;5064960;28;20033;-50
2022/11/06 03:19:06;;;;;;;17.17;13.55;;;6.80;99.90;;;;;;5074373;28;20465;-49
2022/11/06 03:21:51;;;;;;;18.38;14.10;;;6.80;99.90;;;;;;5073896;28;20481;-50
2022/11/06 03:24:25;;;;;;;16.48;12.95;;;6.80;99.90;;;;;;5074114;28;20150;-49
2022/11/06 03:26:52;;;;;;;18.13;13.93;;;6.80;99.90;;;;;;5073435;28;20032;-50
2022/11/06 03:29:28;;;;;;;18.20;14.05;;;6.70;99.90;;;;;;5072468;28;20025;-50
2022/11/06 03:32:21;;;;;;;20.50;15.65;;;6.70;99.90;;;;;;5073412;28;20029;-50
2022/11/06 03:34:58;;;;;;;23.00;17.13;;;6.70;99.90;;;;;;5073436;28;20035;-49
2022/11/06 03:37:33;;;;;;;27.98;19.23;;;6.80;99.90;;;;;;5073673;28;20106;-49
2022/11/06 03:40:04;;;;;;;25.92;18.30;;;6.80;99.90;;;;;;5073748;28;20161;-49
2022/11/06 03:42:30;;;;;;;25.88;18.33;;;6.80;99.90;;;;;;5072172;28;20016;-49
2022/11/06 03:44:58;;;;;;;23.35;16.52;;;6.80;99.90;;;;;;5073156;28;20483;-50
2022/11/06 03:47:30;;;;;;;25.45;16.77;;;6.80;99.90;;;;;;5073388;28;20170;-50
2022/11/06 03:50:01;;;;;;;23.77;16.88;;;6.70;99.90;;;;;;5073244;28;20033;-50
2022/11/06 03:52:53;;;;;;;24.45;17.00;;;6.60;99.90;;;;;;5073201;28;20048;-50
2022/11/06 03:55:25;;;;;;;23.92;18.13;;;6.70;99.90;;;;;;5073244;28;20542;-53
2022/11/06 03:58:22;;;;;;;27.13;18.52;;;6.60;99.90;;;;;;5073168;28;20029;-49
2022/11/06 04:00:49;;;;;;;26.48;19.05;;;6.60;99.90;;;;;;5073036;28;20040;-49
2022/11/06 04:03:30;;;;;;;31.10;19.80;;;6.60;99.90;;;;;;5073355;28;20025;-49
2022/11/06 04:06:22;;;;;;;31.55;20.60;;;6.60;99.90;;;;;;5072860;28;20364;-51
2022/11/06 04:14:25;;;;;;;28.25;20.15;;;6.20;99.90;;;;;;5072430;28;20027;-52
2022/11/06 04:16:55;;;;;;;25.90;18.40;;;6.10;99.90;;;;;;5072855;28;20123;-50
2022/11/06 04:19:22;;;;;;;26.08;18.10;;;6.00;99.90;;;;;;5071447;28;20162;-50
2022/11/06 04:21:53;;;;;;;27.95;18.60;;;5.90;99.90;;;;;;5072840;28;20033;-49
2022/11/06 04:27:24;;;;;;;23.85;17.05;;;5.60;99.90;;;;;;5071850;28;20059;-49
2022/11/06 04:29:59;;;;;;;24.55;16.27;;;5.50;99.90;;;;;;5070930;28;20462;-50
2022/11/06 04:32:34;;;;;;;27.75;18.95;;;5.40;99.90;;;;;;5072462;28;20039;-52
2022/11/06 04:35:08;;;;;;;25.27;17.88;;;5.40;99.90;;;;;;5072519;28;20024;-50
2022/11/06 04:37:52;;;;;;;26.92;18.80;;;5.30;99.90;;;;;;5072334;28;20037;-50
2022/11/06 04:40:22;;;;;;;24.52;17.63;;;5.20;99.90;;;;;;5072232;28;20432;-50
2022/11/06 04:43:24;;;;;;;27.10;17.52;;;5.10;99.90;;;;;;5072395;28;20033;-49
2022/11/06 04:45:53;;;;;;;24.92;17.45;;;5.10;99.90;;;;;;5059519;28;20099;-51
2022/11/06 04:48:20;;;;;;;22.42;16.88;;;5.00;99.90;;;;;;5072163;28;20136;-50
2022/11/06 04:50:50;;;;;;;24.05;16.33;;;4.90;99.90;;;;;;5071921;28;20111;-50
2022/11/06 04:53:17;;;;;;;26.30;17.27;;;4.80;99.90;;;;;;5072559;28;20360;-50
2022/11/06 04:55:54;;;;;;;27.45;16.75;;;4.80;99.90;;;;;;5072027;28;20035;-52
2022/11/06 04:58:20;;;;;;;25.48;16.90;;;4.70;99.90;;;;;;5072164;28;20070;-49
2022/11/06 05:00:48;;;;;;;23.45;16.67;;;4.70;99.90;;;;;;5072004;28;20028;-50
2022/11/06 05:03:15;;;;;;;24.17;16.70;;;4.60;99.90;;;;;;5071847;28;20479;-49
2022/11/06 05:05:41;;;;;;;25.45;18.23;;;4.60;99.90;;;;;;5071290;28;20380;-49
2022/11/06 05:08:15;;;;;;;24.52;16.77;;;4.50;99.90;;;;;;5071910;28;20048;-50
2022/11/06 05:10:44;;;;;;;25.58;17.52;;;4.40;99.90;;;;;;5071537;28;20503;-50
2022/11/06 05:13:11;;;;;;;25.88;16.55;;;4.40;99.90;;;;;;5070935;28;20032;-49
2022/11/06 05:15:37;;;;;;;30.92;20.17;;;4.40;99.90;;;;;;5070548;28;20032;-50
2022/11/06 05:18:03;;;;;;;22.50;15.40;;;4.30;99.90;;;;;;5070852;28;20032;-49
2022/11/06 05:20:35;;;;;;;26.20;17.08;;;4.20;99.90;;;;;;5071277;28;20033;-49
2022/11/06 05:23:00;;;;;;;28.40;17.20;;;4.20;99.90;;;;;;5070583;28;20038;-49
2022/11/06 05:25:32;;;;;;;23.58;16.85;;;4.20;99.90;;;;;;5069367;28;20028;-51
2022/11/06 05:27:59;;;;;;;27.20;16.58;;;4.20;99.90;;;;;;5071422;28;20024;-49
2022/11/06 05:30:25;;;;;;;25.65;16.42;;;4.10;99.90;;;;;;5071607;28;20067;-50
2022/11/06 05:32:51;;;;;;;27.40;16.10;;;4.10;99.90;;;;;;5071809;28;20033;-50
2022/11/06 05:35:18;;;;;;;32.30;16.60;;;4.10;99.90;;;;;;5071681;28;20048;-49
2022/11/06 05:37:43;;;;;;;77.75;16.35;;;4.10;99.90;;;;;;5071515;28;20031;-49
2022/11/06 05:40:09;;;;;;;37.38;15.40;;;4.10;99.90;;;;;;5071426;28;20028;-49
2022/11/06 05:42:39;;;;;;;59.63;17.83;;;4.00;99.90;;;;;;5071413;28;20039;-49
2022/11/06 05:45:06;;;;;;;105.40;19.67;;;3.90;99.90;;;;;;5071527;28;20055;-49
2022/11/06 05:47:31;;;;;;;108.15;20.15;;;3.90;99.90;;;;;;5071412;28;20068;-49
2022/11/06 05:49:57;;;;;;;177.88;21.52;;;3.90;99.90;;;;;;5070258;28;20498;-49
2022/11/06 05:52:23;;;;;;;103.15;17.73;;;3.90;99.90;;;;;;5071353;28;20060;-49
2022/11/06 05:54:48;;;;;;;51.97;19.05;;;3.80;99.90;;;;;;5071115;28;20021;-49
2022/11/06 05:57:14;;;;;;;44.33;17.30;;;3.80;99.90;;;;;;5070944;28;20190;-50
2022/11/06 05:59:40;;;;;;;54.80;17.30;;;3.70;99.90;;;;;;5071082;28;20170;-50
2022/11/06 06:02:05;;;;;;;39.88;17.08;;;3.80;99.90;;;;;;5071231;28;20364;-49
2022/11/06 06:04:31;;;;;;;74.85;17.10;;;3.80;99.90;;;;;;5070858;28;20086;-49
2022/11/06 06:06:56;;;;;;;68.35;19.35;;;3.80;99.90;;;;;;5070960;28;20029;-50
2022/11/06 06:09:22;;;;;;;32.97;16.98;;;3.80;99.90;;;;;;5068989;28;20048;-48
2022/11/06 06:11:51;;;;;;;26.48;17.80;;;3.80;99.90;;;;;;5070901;28;20087;-49
2022/11/06 06:14:18;;;;;;;26.55;17.83;;;3.80;99.90;;;;;;5070673;28;20025;-49
2022/11/06 06:16:43;;;;;;;35.42;17.13;;;3.80;99.90;;;;;;5069712;28;20496;-49
2022/11/06 06:19:09;;;;;;;183.25;23.63;;;3.90;99.90;;;;;;5075388;28;20036;-50
2022/11/06 06:21:35;;;;;;;278.45;24.08;;;4.00;99.90;;;;;;5075075;28;20017;-49
2022/11/06 06:24:03;;;;;;;222.52;23.60;;;4.10;99.90;;;;;;5074988;28;20111;-49
2022/11/06 06:26:28;;;;;;;139.85;23.02;;;4.10;99.90;;;;;;5074296;28;20136;-51
2022/11/06 06:28:54;;;;;;;233.68;21.80;;;4.20;99.90;;;;;;5075105;28;20033;-49
2022/11/06 06:31:20;;;;;;;199.43;22.38;;;4.20;99.90;;;;;;5074520;28;20028;-51
2022/11/06 06:33:46;;;;;;;219.27;23.50;;;4.20;99.90;;;;;;5074958;28;20037;-50
2022/11/06 06:36:12;;;;;;;178.80;22.50;;;4.20;99.90;;;;;;5074627;28;20123;-50
2022/11/06 06:38:38;;;;;;;115.85;19.80;;;4.30;99.90;;;;;;5073017;28;20550;-51
2022/11/06 06:41:06;;;;;;;195.13;21.88;;;4.30;99.90;;;;;;5074478;28;20032;-50
2022/11/06 06:43:32;;;;;;;207.63;23.20;;;4.30;99.90;;;;;;5074294;28;20062;-49
2022/11/06 06:45:59;;;;;;;139.80;19.80;;;4.30;99.90;;;;;;5074179;28;20025;-49
2022/11/06 06:48:26;;;;;;;103.43;19.23;;;4.40;99.90;;;;;;5074442;28;20059;-50
2022/11/06 06:50:51;;;;;;;74.47;18.20;;;4.50;99.90;;;;;;5074553;28;20038;-51
2022/11/06 06:53:17;;;;;;;122.18;18.65;;;4.60;99.90;;;;;;5074292;28;20024;-50
2022/11/06 06:55:42;;;;;;;186.30;21.63;;;4.70;99.90;;;;;;5074288;28;20032;-50
2022/11/06 06:58:09;;;;;;;258.40;22.55;;;4.80;99.90;;;;;;5072957;28;20033;-50
2022/11/06 07:00:35;;;;;;;53.33;21.80;;;4.90;99.90;;;;;;5074217;28;20363;-49
2022/11/06 07:03:01;;;;;;;209.55;95.55;;;5.00;99.90;;;;;;5074383;28;20031;-50
2022/11/06 07:05:27;;;;;;;163.10;82.47;;;5.00;99.90;;;;;;5073706;28;20644;-52
2022/11/06 07:07:52;;;;;;;202.85;83.38;;;5.10;99.90;;;;;;5073451;28;20178;-49
2022/11/06 07:10:18;;;;;;;245.70;115.13;;;5.20;99.90;;;;;;5073890;28;20062;-50
2022/11/06 07:12:44;;;;;;;188.23;63.47;;;5.20;99.90;;;;;;5072443;28;20105;-50
2022/11/06 07:15:10;;;;;;;115.97;56.17;;;5.20;99.90;;;;;;5073603;28;20032;-50
2022/11/06 07:17:36;;;;;;;121.25;53.60;;;5.20;99.90;;;;;;5073847;28;20025;-51
2022/11/06 07:20:03;;;;;;;105.00;46.40;;;5.20;99.90;;;;;;5073839;28;20052;-50
2022/11/06 07:22:29;;;;;;;81.47;43.35;;;5.30;99.90;;;;;;5073781;28;20017;-50
2022/11/06 07:24:55;;;;;;;114.90;60.85;;;5.40;99.90;;;;;;5073655;28;20067;-51
2022/11/06 07:27:20;;;;;;;151.75;87.00;;;5.40;99.90;;;;;;5073508;28;20032;-50
2022/11/06 07:29:46;;;;;;;116.13;64.30;;;5.60;99.90;;;;;;5073177;28;20036;-48
2022/11/06 07:32:12;;;;;;;133.45;71.85;;;5.70;99.90;;;;;;5073743;28;20029;-50
2022/11/06 07:34:37;;;;;;;80.00;46.75;;;5.70;99.90;;;;;;5072142;28;20151;-52
2022/11/06 07:37:06;;;;;;;68.63;41.65;;;5.80;99.90;;;;;;5073003;28;20087;-53
2022/11/06 07:39:32;;;;;;;60.50;35.72;;;5.80;99.90;;;;;;5073083;28;20029;-51
2022/11/06 07:41:58;;;;;;;63.47;38.05;;;5.90;99.90;;;;;;5073708;28;20114;-50
2022/11/06 07:44:24;;;;;;;60.40;37.38;;;6.00;99.90;;;;;;5072972;28;20072;-51
2022/11/06 07:46:49;;;;;;;52.22;30.80;;;6.00;99.90;;;;;;5073454;28;20073;-53
2022/11/06 07:49:15;;;;;;;56.30;33.05;;;6.10;99.90;;;;;;5073386;28;20364;-53
2022/11/06 07:51:42;;;;;;;44.75;31.30;;;6.10;99.90;;;;;;5073082;28;20040;-53
2022/11/06 07:54:07;;;;;;;46.95;33.45;;;6.20;99.90;;;;;;5073144;28;20178;-49
2022/11/06 07:56:33;;;;;;;49.63;32.28;;;6.30;99.90;;;;;;5072968;28;20503;-51
2022/11/06 07:58:59;;;;;;;37.85;26.60;;;6.40;99.90;;;;;;5073251;28;20383;-52
2022/11/06 08:01:24;;;;;;;26.60;19.10;;;6.60;99.90;;;;;;5072883;28;20376;-50
2022/11/06 08:03:50;;;;;;;29.30;15.80;;;6.80;99.90;;;;;;5072924;28;20507;-52
2022/11/06 08:06:16;;;;;;;19.75;14.73;;;7.00;99.90;;;;;;5072343;28;20099;-52
2022/11/06 08:08:42;;;;;;;15.73;11.32;;;7.10;99.90;;;;;;5071191;28;20047;-51
2022/11/06 08:11:10;;;;;;;15.15;9.20;;;7.20;99.90;;;;;;5072537;28;20383;-51
2022/11/06 08:13:36;;;;;;;9.95;8.32;;;7.30;99.90;;;;;;5072651;28;20051;-53
2022/11/06 08:16:10;;;;;;;11.18;6.68;;;7.30;99.90;;;;;;5072348;28;20056;-51
2022/11/06 08:18:37;;;;;;;11.07;7.50;;;7.40;99.90;;;;;;5071894;28;20051;-55
2022/11/06 08:21:03;;;;;;;7.35;6.60;;;7.50;99.90;;;;;;5072149;28;20028;-51
2022/11/06 08:23:29;;;;;;;9.65;6.22;;;7.50;99.90;;;;;;5073848;28;20357;-51
2022/11/06 08:25:56;;;;;;;10.30;7.25;;;7.60;99.90;;;;;;5071017;28;20112;-51
2022/11/06 08:28:23;;;;;;;8.75;7.20;;;7.60;99.90;;;;;;5071733;28;20021;-50
2022/11/06 08:30:49;;;;;;;11.68;8.82;;;7.70;99.90;;;;;;5071826;28;20024;-50
2022/11/06 08:33:15;;;;;;;11.05;9.50;;;7.70;99.90;;;;;;5067371;28;20111;-50
2022/11/06 08:35:41;;;;;;;13.15;10.18;;;7.60;99.90;;;;;;5071556;28;20448;-50
2022/11/06 08:38:06;;;;;;;12.43;10.60;;;7.50;99.90;;;;;;5071210;28;20024;-49
2022/11/06 08:40:32;;;;;;;12.40;9.15;;;7.40;99.90;;;;;;5070382;28;20027;-50
2022/11/06 08:42:59;;;;;;;25.13;9.25;;;7.50;99.90;;;;;;5071275;28;20020;-50
2022/11/06 08:45:25;;;;;;;55.33;11.60;;;7.40;99.90;;;;;;5071324;28;20090;-50
2022/11/06 08:47:50;;;;;;;30.48;10.10;;;7.40;99.90;;;;;;5071013;28;20479;-50
2022/11/06 08:50:16;;;;;;;60.50;11.38;;;7.40;99.90;;;;;;5070623;28;20452;-50
2022/11/06 08:52:42;;;;;;;126.32;12.43;;;7.40;99.90;;;;;;5070494;28;20032;-51
2022/11/06 08:55:08;;;;;;;109.85;58.33;;;7.50;99.90;;;;;;5070819;28;20048;-50
2022/11/06 08:57:33;;;;;;;142.77;15.73;;;7.50;99.90;;;;;;5070321;28;20107;-50
2022/11/06 08:59:59;;;;;;;124.03;12.32;;;7.50;99.90;;;;;;5071330;28;20028;-49
2022/11/06 09:02:25;;;;;;;70.68;11.18;;;7.50;99.90;;;;;;5070956;28;20024;-51
2022/11/06 09:04:51;;;;;;;15.63;9.02;;;7.50;99.90;;;;;;5070861;28;20017;-49
2022/11/06 09:07:17;;;;;;;51.90;9.82;;;7.50;99.90;;;;;;5071198;28;20021;-51
2022/11/06 09:09:42;;;;;;;40.97;12.43;;;7.40;99.90;;;;;;5070806;28;20044;-49
2022/11/06 09:12:08;;;;;;;15.52;11.73;;;7.50;99.90;;;;;;5070779;28;20039;-50
2022/11/06 09:14:34;;;;;;;25.13;14.63;;;7.50;99.90;;;;;;5071823;28;20614;-51
2022/11/06 09:17:00;;;;;;;40.38;21.92;;;7.70;99.90;;;;;;5068988;28;20037;-52
2022/11/06 09:19:25;;;;;;;23.30;14.70;;;7.80;99.90;;;;;;5071161;28;20028;-51
2022/11/06 09:21:51;;;;;;;20.40;12.18;;;7.80;99.90;;;;;;5068995;28;20090;-51
2022/11/06 09:24:16;;;;;;;22.55;12.25;;;7.90;99.90;;;;;;5070686;28;20029;-50
2022/11/06 09:26:42;;;;;;;20.67;13.93;;;7.90;99.90;;;;;;5070328;28;20082;-51
2022/11/06 09:29:08;;;;;;;18.05;14.88;;;8.00;99.90;;;;;;5070693;28;20027;-51
2022/11/06 09:31:33;;;;;;;20.23;18.05;;;8.10;99.90;;;;;;5070173;28;20033;-50
2022/11/06 09:33:59;;;;;;;19.20;14.27;;;8.10;99.90;;;;;;5070640;28;20032;-51
2022/11/06 09:36:25;;;;;;;17.58;14.68;;;8.00;99.90;;;;;;5070825;28;20043;-51
2022/11/06 09:38:50;;;;;;;16.33;13.80;;;8.00;99.90;;;;;;5070315;28;20025;-50
2022/11/06 09:41:26;;;;;;;18.20;14.13;;;8.00;99.90;;;;;;5070429;28;20036;-51
2022/11/06 09:44:27;;;;;;;17.60;13.50;;;8.10;99.90;;;;;;5070729;28;20021;-50
2022/11/06 09:46:54;;;;;;;18.17;13.98;;;8.00;99.90;;;;;;4969312;28;20023;-51
2022/11/06 09:49:40;;;;;;;16.23;12.70;;;8.10;99.90;;;;;;5049962;28;20029;-50
2022/11/06 09:52:36;;;;;;;15.45;13.35;;;8.20;99.90;;;;;;5069241;28;20044;-52
2022/11/06 09:55:24;;;;;;;16.05;13.20;;;8.30;99.90;;;;;;5070409;28;20017;-51
2022/11/06 09:58:10;;;;;;;17.27;14.45;;;8.60;99.90;;;;;;5066928;28;20153;-51
2022/11/06 10:00:38;;;;;;;17.92;13.93;;;8.60;99.90;;;;;;5070404;28;20040;-53
2022/11/06 10:03:13;;;;;;;16.08;12.90;;;8.80;99.90;;;;;;5070197;28;20029;-54
2022/11/06 10:05:41;;;;;;;17.73;15.25;;;8.60;99.90;;;;;;5069995;28;20647;-53
2022/11/06 10:08:21;;;;;;;17.55;13.48;;;8.50;99.90;;;;;;5070130;28;20059;-52
2022/11/06 10:11:12;;;;;;;17.42;14.82;;;8.40;99.90;;;;;;5070018;28;20020;-50
2022/11/06 10:13:44;;;;;;;15.77;13.55;;;8.30;99.90;;;;;;5070403;28;20665;-50
2022/11/06 10:16:51;;;;;;;19.20;13.07;;;8.30;99.90;;;;;;5070440;28;20403;-49
2022/11/06 10:19:20;;;;;;;17.98;14.70;;;8.30;99.90;;;;;;5008158;28;20041;-52
2022/11/06 10:22:07;;;;;;;20.45;15.43;;;8.10;99.90;;;;;;5058728;28;20068;-50
2022/11/06 10:24:51;;;;;;;18.05;15.43;;;8.30;99.90;;;;;;5070486;28;20033;-54
2022/11/06 10:27:24;;;;;;;16.35;13.57;;;8.60;99.90;;;;;;5070507;28;20402;-55
2022/11/06 10:30:10;;;;;;;19.45;15.13;;;9.00;99.90;;;;;;5070659;28;20107;-49
2022/11/06 10:33:03;;;;;;;17.90;15.15;;;9.30;99.90;;;;;;5071054;28;20056;-51
2022/11/06 10:35:39;;;;;;;22.48;16.67;;;9.20;99.90;;;;;;5071089;28;20024;-52
2022/11/06 10:38:17;;;;;;;22.58;17.20;;;9.00;99.90;;;;;;5069156;28;20503;-54
2022/11/06 10:40:47;;;;;;;29.02;19.50;;;8.80;99.90;;;;;;5070252;28;20086;-52
2022/11/06 10:43:25;;;;;;;26.95;18.40;;;8.90;99.90;;;;;;5070228;28;20029;-50
2022/11/06 10:46:00;;;;;;;21.77;17.67;;;8.90;99.90;;;;;;5070440;28;20092;-52
2022/11/06 10:48:38;;;;;;;23.65;19.08;;;8.90;99.90;;;;;;5069898;28;20071;-51
2022/11/06 10:51:34;;;;;;;24.92;18.30;;;8.80;99.90;;;;;;5069078;28;20028;-50
2022/11/06 10:54:20;;;;;;;24.92;19.52;;;8.80;99.90;;;;;;5069819;28;20375;-49
2022/11/06 10:57:04;;;;;;;29.35;21.75;;;8.70;99.90;;;;;;5069064;28;20029;-51
2022/11/06 10:59:30;;;;;;;26.58;21.05;;;8.80;99.90;;;;;;5068877;28;20080;-51
2022/11/06 11:01:55;;;;;;;27.63;20.23;;;8.80;99.90;;;;;;5067807;28;20021;-51
2022/11/06 11:04:21;;;;;;;28.20;21.55;;;8.90;99.90;;;;;;5071119;28;20024;-53
2022/11/06 11:06:47;;;;;;;29.33;20.15;;;8.90;99.90;;;;;;5072372;28;20029;-52
2022/11/06 11:09:53;;;;;;;24.65;18.67;;;9.00;99.90;;;;;;5072258;28;20074;-50
2022/11/06 11:12:29;;;;;;;26.17;19.70;;;9.10;99.90;;;;;;5070497;28;20464;-49
2022/11/06 11:15:14;;;;;;;25.40;19.85;;;9.30;99.90;;;;;;5070971;28;20028;-49
2022/11/06 11:17:41;;;;;;;23.75;19.60;;;9.30;99.90;;;;;;5071108;28;20040;-50
2022/11/06 11:20:32;;;;;;;21.13;16.90;;;9.40;99.90;;;;;;5072322;28;20024;-50
2022/11/06 11:23:19;;;;;;;27.45;18.50;;;9.70;99.90;;;;;;5072715;28;20408;-50
2022/11/06 11:25:48;;;;;;;25.58;17.02;;;10.00;99.90;;;;;;5072759;28;20055;-53
2022/11/06 11:28:31;;;;;;;23.45;17.63;;;10.00;99.90;;;;;;5072805;28;20024;-53
2022/11/06 11:31:08;;;;;;;20.42;16.35;;;10.30;99.90;;;;;;5072752;28;20116;-51
2022/11/06 11:33:34;;;;;;;24.92;17.42;;;10.20;99.90;;;;;;5072522;28;20025;-52
2022/11/06 11:36:02;;;;;;;17.80;15.90;;;10.40;99.90;;;;;;5072774;28;20024;-52
2022/11/06 11:38:28;;;;;;;23.20;18.85;;;10.50;99.90;;;;;;5071107;28;20116;-53
2022/11/06 11:41:08;;;;;;;20.35;16.05;;;10.50;99.90;;;;;;5072572;28;20074;-48
2022/11/06 11:43:33;;;;;;;18.40;15.20;;;10.40;99.90;;;;;;5072346;28;20021;-51
2022/11/06 11:46:08;;;;;;;20.55;15.85;;;10.50;99.90;;;;;;5072495;28;20598;-52
2022/11/06 11:48:49;;;;;;;16.73;13.65;;;10.40;99.90;;;;;;5072332;28;20029;-51
2022/11/06 11:51:23;;;;;;;17.63;15.57;;;10.50;99.90;;;;;;5072366;28;20335;-48
2022/11/06 11:53:50;;;;;;;17.40;14.55;;;11.10;99.90;;;;;;5072461;28;20391;-51
2022/11/06 11:56:19;;;;;;;16.35;14.63;;;11.90;99.90;;;;;;5072308;28;20120;-50
2022/11/06 11:58:54;;;;;;;14.93;13.43;;;12.00;99.90;;;;;;5072146;28;20566;-51
2022/11/06 12:01:35;;;;;;;16.70;14.90;;;12.00;99.90;;;;;;5072215;28;20107;-53
2022/11/06 12:04:06;;;;;;;15.55;13.68;;;11.60;99.90;;;;;;5072173;28;20032;-50
2022/11/06 12:06:32;;;;;;;15.57;13.60;;;11.70;99.90;;;;;;5072133;28;20508;-51
2022/11/06 12:08:58;;;;;;;15.27;13.68;;;12.00;99.90;;;;;;5070075;28;20120;-52
2022/11/06 12:11:27;;;;;;;15.95;13.60;;;12.00;99.90;;;;;;5071748;28;20116;-51
2022/11/06 12:14:21;;;;;;;15.95;13.15;;;11.90;99.90;;;;;;5071504;28;20079;-52
2022/11/06 12:16:52;;;;;;;14.65;12.27;;;11.80;99.90;;;;;;5071628;28;20527;-52
2022/11/06 12:19:20;;;;;;;14.00;11.43;;;12.80;99.90;;;;;;5070462;28;20494;-51
2022/11/06 12:21:55;;;;;;;11.63;10.25;;;14.70;99.90;;;;;;5071824;28;20039;-51
2022/11/06 12:24:36;;;;;;;15.07;11.23;;;15.70;97.80;;;;;;5071661;28;20066;-52
2022/11/06 12:27:46;;;;;;;13.63;11.35;;;15.30;97.20;;;;;;5070366;28;20060;-50
2022/11/06 12:30:16;;;;;;;15.73;13.10;;;14.40;97.70;;;;;;5069448;28;20037;-50
2022/11/06 12:33:03;;;;;;;13.95;11.25;;;13.60;99.20;;;;;;5071404;28;20023;-50
2022/11/06 12:35:38;;;;;;;12.98;11.57;;;13.30;99.80;;;;;;5071550;28;20151;-51
2022/11/06 12:38:10;;;;;;;12.02;10.60;;;13.80;99.60;;;;;;5071727;28;20107;-51
2022/11/06 12:40:44;;;;;;;13.77;11.57;;;14.70;97.20;;;;;;5071213;28;20029;-53
2022/11/06 12:43:21;;;;;;;13.60;10.55;;;16.50;94.40;;;;;;5071406;28;20114;-53
2022/11/06 12:45:52;;;;;;;13.82;10.55;;;17.00;91.80;;;;;;5071543;28;20404;-55
2022/11/06 12:48:39;;;;;;;12.50;11.10;;;17.90;90.60;;;;;;5071263;28;20012;-51
2022/11/06 12:51:14;;;;;;;16.52;11.32;;;17.40;90.00;;;;;;5071306;28;20063;-54
2022/11/06 12:54:08;;;;;;;13.65;10.57;;;17.90;90.40;;;;;;5071011;28;20557;-52
2022/11/06 12:56:47;;;;;;;12.15;9.55;;;18.20;85.50;;;;;;5071087;28;20051;-54
2022/11/06 12:59:21;;;;;;;12.27;10.88;;;17.90;85.70;;;;;;5071035;28;20035;-51
2022/11/06 13:01:54;;;;;;;14.18;11.57;;;18.10;84.60;;;;;;5071048;28;20298;-53
2022/11/06 13:04:31;;;;;;;13.38;11.25;;;16.70;86.00;;;;;;5070789;28;20113;-54
2022/11/06 13:07:25;;;;;;;13.02;11.63;;;16.60;87.70;;;;;;5070924;28;20021;-54
2022/11/06 13:09:59;;;;;;;13.07;11.73;;;15.90;89.00;;;;;;5071160;28;20076;-50
2022/11/06 13:12:35;;;;;;;13.93;12.27;;;15.20;91.00;;;;;;5070693;28;20029;-52